Kislovodsk, Russia
Current Conditions -  °F | °C
As of 7:00 PM on Wednesday 28 Jan 2015 (Local Time) from URMM Reporting Station
Drizzle Drizzle  
Wind Chill: 27°   Ceiling: 700
Heat Index: 34°   Visibility: 6mi
Dew Point: 34°   Wind: 9mph
Humidity: 100%   Direction: 110°ESE
Pressure: 29.88"   Gusts: NA
Location:  43.91°N, 42.72°E
Report Text: URMM 281600Z 11004MPS 9999 -DZ OVC007 01/01 Q1012 R12/290250NOSIG RMK MT OBSC QFE731/0975
Loading
Personal Weather Stations






























Interactive Weather Map New forecast layout! Learn more

10-Day Weather Forecast

Advertisements
Track Severe Weather on mobile